sensor_id;sensor_type;location;lat;lon;timestamp;P1;durP1;ratioP1;P2;durP2;ratioP2
41661;SDS011;27351;45.992;12.666;2023-09-19T00:00:57;10.85;;;4.95;;
41661;SDS011;27351;45.992;12.666;2023-09-19T00:03:24;12.80;;;5.18;;
41661;SDS011;27351;45.992;12.666;2023-09-19T00:05:51;11.85;;;6.30;;
41661;SDS011;27351;45.992;12.666;2023-09-19T00:08:16;10.50;;;5.13;;
41661;SDS011;27351;45.992;12.666;2023-09-19T00:10:42;11.23;;;5.30;;
41661;SDS011;27351;45.992;12.666;2023-09-19T00:13:09;13.10;;;5.00;;
41661;SDS011;27351;45.992;12.666;2023-09-19T00:15:39;11.52;;;5.45;;
41661;SDS011;27351;45.992;12.666;2023-09-19T00:18:05;11.18;;;5.63;;
41661;SDS011;27351;45.992;12.666;2023-09-19T00:20:37;12.48;;;5.60;;
41661;SDS011;27351;45.992;12.666;2023-09-19T00:23:04;10.65;;;5.90;;
41661;SDS011;27351;45.992;12.666;2023-09-19T00:25:35;12.27;;;6.18;;
41661;SDS011;27351;45.992;12.666;2023-09-19T00:28:04;12.55;;;5.88;;
41661;SDS011;27351;45.992;12.666;2023-09-19T00:30:29;12.13;;;5.97;;
41661;SDS011;27351;45.992;12.666;2023-09-19T00:32:55;13.75;;;5.88;;
41661;SDS011;27351;45.992;12.666;2023-09-19T00:35:22;11.88;;;5.68;;
41661;SDS011;27351;45.992;12.666;2023-09-19T00:37:51;14.33;;;6.43;;
41661;SDS011;27351;45.992;12.666;2023-09-19T00:40:16;15.07;;;6.23;;
41661;SDS011;27351;45.992;12.666;2023-09-19T00:42:47;13.25;;;6.22;;
41661;SDS011;27351;45.992;12.666;2023-09-19T00:45:14;13.63;;;6.00;;
41661;SDS011;27351;45.992;12.666;2023-09-19T00:47:41;14.05;;;6.47;;
41661;SDS011;27351;45.992;12.666;2023-09-19T00:50:08;12.98;;;6.38;;
41661;SDS011;27351;45.992;12.666;2023-09-19T00:52:34;13.77;;;6.45;;
41661;SDS011;27351;45.992;12.666;2023-09-19T00:55:02;12.20;;;6.00;;
41661;SDS011;27351;45.992;12.666;2023-09-19T00:57:28;11.13;;;5.53;;
41661;SDS011;27351;45.992;12.666;2023-09-19T00:59:54;11.73;;;6.38;;
41661;SDS011;27351;45.992;12.666;2023-09-19T01:02:20;13.52;;;6.50;;
41661;SDS011;27351;45.992;12.666;2023-09-19T01:04:46;13.77;;;6.57;;
41661;SDS011;27351;45.992;12.666;2023-09-19T01:07:12;12.50;;;5.75;;
41661;SDS011;27351;45.992;12.666;2023-09-19T01:09:40;13.63;;;6.38;;
41661;SDS011;27351;45.992;12.666;2023-09-19T01:12:06;12.40;;;5.70;;
41661;SDS011;27351;45.992;12.666;2023-09-19T01:14:36;16.40;;;5.82;;
41661;SDS011;27351;45.992;12.666;2023-09-19T01:17:07;14.57;;;5.97;;
41661;SDS011;27351;45.992;12.666;2023-09-19T01:27:40;12.18;;;6.15;;
41661;SDS011;27351;45.992;12.666;2023-09-19T01:30:13;10.50;;;5.33;;
41661;SDS011;27351;45.992;12.666;2023-09-19T01:32:39;12.27;;;5.72;;
41661;SDS011;27351;45.992;12.666;2023-09-19T01:35:06;11.47;;;5.20;;
41661;SDS011;27351;45.992;12.666;2023-09-19T01:37:37;15.95;;;5.70;;
41661;SDS011;27351;45.992;12.666;2023-09-19T01:40:07;9.45;;;4.53;;
41661;SDS011;27351;45.992;12.666;2023-09-19T01:42:41;10.55;;;4.85;;
41661;SDS011;27351;45.992;12.666;2023-09-19T01:45:13;12.32;;;4.57;;
41661;SDS011;27351;45.992;12.666;2023-09-19T01:55:41;10.20;;;4.15;;
41661;SDS011;27351;45.992;12.666;2023-09-19T01:58:20;14.83;;;4.33;;
41661;SDS011;27351;45.992;12.666;2023-09-19T02:00:48;10.93;;;4.18;;
41661;SDS011;27351;45.992;12.666;2023-09-19T02:03:15;10.82;;;4.40;;
41661;SDS011;27351;45.992;12.666;2023-09-19T02:05:41;9.13;;;3.97;;
41661;SDS011;27351;45.992;12.666;2023-09-19T02:08:15;9.07;;;3.90;;
41661;SDS011;27351;45.992;12.666;2023-09-19T02:10:43;8.98;;;3.85;;
41661;SDS011;27351;45.992;12.666;2023-09-19T02:13:11;8.68;;;3.88;;
41661;SDS011;27351;45.992;12.666;2023-09-19T02:15:37;11.85;;;4.10;;
41661;SDS011;27351;45.992;12.666;2023-09-19T02:18:03;11.68;;;4.22;;
41661;SDS011;27351;45.992;12.666;2023-09-19T02:20:29;9.10;;;3.90;;
41661;SDS011;27351;45.992;12.666;2023-09-19T02:22:55;12.40;;;3.97;;
41661;SDS011;27351;45.992;12.666;2023-09-19T02:25:20;10.60;;;4.05;;
41661;SDS011;27351;45.992;12.666;2023-09-19T02:27:46;10.50;;;3.60;;
41661;SDS011;27351;45.992;12.666;2023-09-19T02:30:12;10.00;;;3.72;;
41661;SDS011;27351;45.992;12.666;2023-09-19T02:32:40;10.43;;;3.47;;
41661;SDS011;27351;45.992;12.666;2023-09-19T02:35:07;8.48;;;3.78;;
41661;SDS011;27351;45.992;12.666;2023-09-19T02:37:36;12.60;;;4.10;;
41661;SDS011;27351;45.992;12.666;2023-09-19T02:40:03;9.07;;;3.40;;
41661;SDS011;27351;45.992;12.666;2023-09-19T02:42:32;14.10;;;4.88;;
41661;SDS011;27351;45.992;12.666;2023-09-19T02:44:57;10.87;;;4.63;;
41661;SDS011;27351;45.992;12.666;2023-09-19T02:47:24;11.05;;;4.80;;
41661;SDS011;27351;45.992;12.666;2023-09-19T02:49:50;10.65;;;5.22;;
41661;SDS011;27351;45.992;12.666;2023-09-19T02:52:16;12.13;;;5.63;;
41661;SDS011;27351;45.992;12.666;2023-09-19T02:54:41;14.30;;;5.13;;
41661;SDS011;27351;45.992;12.666;2023-09-19T02:57:10;12.90;;;5.53;;
41661;SDS011;27351;45.992;12.666;2023-09-19T02:59:36;12.13;;;5.40;;
41661;SDS011;27351;45.992;12.666;2023-09-19T03:02:02;13.98;;;4.88;;
41661;SDS011;27351;45.992;12.666;2023-09-19T03:04:29;13.77;;;6.30;;
41661;SDS011;27351;45.992;12.666;2023-09-19T03:06:56;12.55;;;6.05;;
41661;SDS011;27351;45.992;12.666;2023-09-19T03:09:26;12.40;;;6.18;;
41661;SDS011;27351;45.992;12.666;2023-09-19T03:11:51;13.27;;;5.83;;
41661;SDS011;27351;45.992;12.666;2023-09-19T03:14:18;13.43;;;6.18;;
41661;SDS011;27351;45.992;12.666;2023-09-19T03:16:47;14.60;;;6.45;;
41661;SDS011;27351;45.992;12.666;2023-09-19T03:19:14;12.65;;;6.43;;
41661;SDS011;27351;45.992;12.666;2023-09-19T03:21:41;11.00;;;5.28;;
41661;SDS011;27351;45.992;12.666;2023-09-19T03:24:07;15.33;;;6.87;;
41661;SDS011;27351;45.992;12.666;2023-09-19T03:26:32;12.70;;;6.63;;
41661;SDS011;27351;45.992;12.666;2023-09-19T03:28:58;18.02;;;7.03;;
41661;SDS011;27351;45.992;12.666;2023-09-19T03:31:24;17.08;;;6.97;;
41661;SDS011;27351;45.992;12.666;2023-09-19T03:33:50;16.40;;;6.82;;
41661;SDS011;27351;45.992;12.666;2023-09-19T03:36:15;14.33;;;6.63;;
41661;SDS011;27351;45.992;12.666;2023-09-19T03:38:41;13.20;;;6.70;;
41661;SDS011;27351;45.992;12.666;2023-09-19T03:41:07;16.33;;;7.38;;
41661;SDS011;27351;45.992;12.666;2023-09-19T03:43:35;16.33;;;7.32;;
41661;SDS011;27351;45.992;12.666;2023-09-19T03:46:02;15.45;;;6.30;;
41661;SDS011;27351;45.992;12.666;2023-09-19T03:48:32;15.43;;;6.70;;
41661;SDS011;27351;45.992;12.666;2023-09-19T03:50:58;12.57;;;6.30;;
41661;SDS011;27351;45.992;12.666;2023-09-19T03:53:24;16.45;;;6.72;;
41661;SDS011;27351;45.992;12.666;2023-09-19T03:55:49;14.03;;;6.00;;
41661;SDS011;27351;45.992;12.666;2023-09-19T03:58:16;14.98;;;6.80;;
41661;SDS011;27351;45.992;12.666;2023-09-19T04:00:41;12.03;;;5.90;;
41661;SDS011;27351;45.992;12.666;2023-09-19T04:03:07;12.68;;;6.03;;
41661;SDS011;27351;45.992;12.666;2023-09-19T04:05:33;12.82;;;6.25;;
41661;SDS011;27351;45.992;12.666;2023-09-19T04:07:59;15.32;;;6.80;;
41661;SDS011;27351;45.992;12.666;2023-09-19T04:10:25;14.70;;;7.28;;
41661;SDS011;27351;45.992;12.666;2023-09-19T04:12:54;12.23;;;6.37;;
41661;SDS011;27351;45.992;12.666;2023-09-19T04:15:21;12.85;;;6.45;;
41661;SDS011;27351;45.992;12.666;2023-09-19T04:17:52;14.80;;;7.00;;
41661;SDS011;27351;45.992;12.666;2023-09-19T04:20:18;11.70;;;6.00;;
41661;SDS011;27351;45.992;12.666;2023-09-19T04:22:50;12.50;;;6.15;;
41661;SDS011;27351;45.992;12.666;2023-09-19T04:25:16;10.05;;;5.60;;
41661;SDS011;27351;45.992;12.666;2023-09-19T04:27:44;13.25;;;5.25;;
41661;SDS011;27351;45.992;12.666;2023-09-19T04:30:09;10.80;;;5.40;;
41661;SDS011;27351;45.992;12.666;2023-09-19T04:32:37;13.48;;;5.85;;
41661;SDS011;27351;45.992;12.666;2023-09-19T04:35:08;11.55;;;5.40;;
41661;SDS011;27351;45.992;12.666;2023-09-19T04:37:40;11.85;;;5.60;;
41661;SDS011;27351;45.992;12.666;2023-09-19T04:40:07;9.85;;;4.97;;
41661;SDS011;27351;45.992;12.666;2023-09-19T04:42:39;10.50;;;5.22;;
41661;SDS011;27351;45.992;12.666;2023-09-19T04:45:05;8.23;;;4.20;;
41661;SDS011;27351;45.992;12.666;2023-09-19T04:47:31;11.02;;;4.75;;
41661;SDS011;27351;45.992;12.666;2023-09-19T04:49:57;11.85;;;4.93;;
41661;SDS011;27351;45.992;12.666;2023-09-19T04:52:24;10.07;;;4.30;;
41661;SDS011;27351;45.992;12.666;2023-09-19T04:54:50;9.32;;;4.30;;
41661;SDS011;27351;45.992;12.666;2023-09-19T04:57:15;9.73;;;4.32;;
41661;SDS011;27351;45.992;12.666;2023-09-19T04:59:41;10.43;;;5.30;;
41661;SDS011;27351;45.992;12.666;2023-09-19T05:02:07;13.00;;;4.85;;
41661;SDS011;27351;45.992;12.666;2023-09-19T05:04:35;11.50;;;4.63;;
41661;SDS011;27351;45.992;12.666;2023-09-19T05:07:01;9.37;;;3.77;;
41661;SDS011;27351;45.992;12.666;2023-09-19T05:09:30;7.85;;;3.65;;
41661;SDS011;27351;45.992;12.666;2023-09-19T05:11:59;9.05;;;3.90;;
41661;SDS011;27351;45.992;12.666;2023-09-19T05:14:24;9.17;;;4.23;;
41661;SDS011;27351;45.992;12.666;2023-09-19T05:16:50;12.23;;;4.57;;
41661;SDS011;27351;45.992;12.666;2023-09-19T05:19:16;9.63;;;4.33;;
41661;SDS011;27351;45.992;12.666;2023-09-19T05:21:42;12.13;;;5.15;;
41661;SDS011;27351;45.992;12.666;2023-09-19T05:24:07;10.90;;;4.50;;
41661;SDS011;27351;45.992;12.666;2023-09-19T05:26:33;10.00;;;3.87;;
41661;SDS011;27351;45.992;12.666;2023-09-19T05:28:59;7.68;;;3.50;;
41661;SDS011;27351;45.992;12.666;2023-09-19T05:31:27;8.23;;;3.67;;
41661;SDS011;27351;45.992;12.666;2023-09-19T05:33:53;7.95;;;3.58;;
41661;SDS011;27351;45.992;12.666;2023-09-19T05:36:20;9.43;;;4.20;;
41661;SDS011;27351;45.992;12.666;2023-09-19T05:38:46;10.63;;;3.83;;
41661;SDS011;27351;45.992;12.666;2023-09-19T05:41:15;10.90;;;3.80;;
41661;SDS011;27351;45.992;12.666;2023-09-19T05:43:43;8.23;;;3.53;;
41661;SDS011;27351;45.992;12.666;2023-09-19T05:46:09;8.70;;;3.37;;
41661;SDS011;27351;45.992;12.666;2023-09-19T05:48:34;8.50;;;3.47;;
41661;SDS011;27351;45.992;12.666;2023-09-19T05:51:00;7.35;;;3.22;;
41661;SDS011;27351;45.992;12.666;2023-09-19T05:53:26;8.13;;;3.55;;
41661;SDS011;27351;45.992;12.666;2023-09-19T05:55:52;9.20;;;3.15;;
41661;SDS011;27351;45.992;12.666;2023-09-19T05:58:19;8.38;;;3.03;;
41661;SDS011;27351;45.992;12.666;2023-09-19T06:00:45;9.85;;;3.05;;
41661;SDS011;27351;45.992;12.666;2023-09-19T06:03:12;10.05;;;2.85;;
41661;SDS011;27351;45.992;12.666;2023-09-19T06:05:38;9.05;;;3.00;;
41661;SDS011;27351;45.992;12.666;2023-09-19T06:08:07;8.30;;;2.85;;
41661;SDS011;27351;45.992;12.666;2023-09-19T06:10:36;7.05;;;3.10;;
41661;SDS011;27351;45.992;12.666;2023-09-19T06:13:02;7.45;;;3.38;;
41661;SDS011;27351;45.992;12.666;2023-09-19T06:15:30;10.95;;;3.10;;
41661;SDS011;27351;45.992;12.666;2023-09-19T06:17:58;20.70;;;3.92;;
41661;SDS011;27351;45.992;12.666;2023-09-19T06:20:28;7.38;;;2.70;;
41661;SDS011;27351;45.992;12.666;2023-09-19T06:22:53;6.75;;;3.22;;
41661;SDS011;27351;45.992;12.666;2023-09-19T06:25:19;9.10;;;3.00;;
41661;SDS011;27351;45.992;12.666;2023-09-19T06:27:45;7.57;;;2.80;;
41661;SDS011;27351;45.992;12.666;2023-09-19T06:30:11;5.82;;;2.30;;
41661;SDS011;27351;45.992;12.666;2023-09-19T06:32:37;6.40;;;3.00;;
41661;SDS011;27351;45.992;12.666;2023-09-19T06:35:03;6.17;;;2.60;;
41661;SDS011;27351;45.992;12.666;2023-09-19T06:37:32;5.23;;;2.53;;
41661;SDS011;27351;45.992;12.666;2023-09-19T06:39:59;6.67;;;2.63;;
41661;SDS011;27351;45.992;12.666;2023-09-19T06:42:25;5.73;;;2.53;;
41661;SDS011;27351;45.992;12.666;2023-09-19T06:44:51;5.23;;;2.43;;
41661;SDS011;27351;45.992;12.666;2023-09-19T06:47:16;5.95;;;2.60;;
41661;SDS011;27351;45.992;12.666;2023-09-19T06:49:42;5.78;;;2.40;;
41661;SDS011;27351;45.992;12.666;2023-09-19T06:52:09;5.73;;;2.40;;
41661;SDS011;27351;45.992;12.666;2023-09-19T06:54:35;7.17;;;2.53;;
41661;SDS011;27351;45.992;12.666;2023-09-19T06:57:01;7.17;;;2.70;;
41661;SDS011;27351;45.992;12.666;2023-09-19T06:59:26;8.67;;;2.97;;
41661;SDS011;27351;45.992;12.666;2023-09-19T07:01:52;7.50;;;2.63;;
41661;SDS011;27351;45.992;12.666;2023-09-19T07:04:18;7.93;;;2.80;;
41661;SDS011;27351;45.992;12.666;2023-09-19T07:06:51;6.03;;;2.20;;
41661;SDS011;27351;45.992;12.666;2023-09-19T07:09:17;7.28;;;2.85;;
41661;SDS011;27351;45.992;12.666;2023-09-19T07:11:44;7.45;;;2.42;;
41661;SDS011;27351;45.992;12.666;2023-09-19T07:14:10;9.45;;;2.78;;
41661;SDS011;27351;45.992;12.666;2023-09-19T07:16:39;7.63;;;2.23;;
41661;SDS011;27351;45.992;12.666;2023-09-19T07:19:08;7.38;;;2.60;;
41661;SDS011;27351;45.992;12.666;2023-09-19T07:21:33;9.97;;;2.40;;
41661;SDS011;27351;45.992;12.666;2023-09-19T07:24:01;8.95;;;2.95;;
41661;SDS011;27351;45.992;12.666;2023-09-19T07:26:28;6.80;;;2.42;;
41661;SDS011;27351;45.992;12.666;2023-09-19T07:28:54;9.15;;;2.65;;
41661;SDS011;27351;45.992;12.666;2023-09-19T07:31:20;9.50;;;2.88;;
41661;SDS011;27351;45.992;12.666;2023-09-19T07:33:48;6.78;;;2.90;;
41661;SDS011;27351;45.992;12.666;2023-09-19T07:36:13;9.87;;;2.90;;
41661;SDS011;27351;45.992;12.666;2023-09-19T07:38:40;7.40;;;2.60;;
41661;SDS011;27351;45.992;12.666;2023-09-19T07:41:06;10.05;;;3.20;;
41661;SDS011;27351;45.992;12.666;2023-09-19T07:43:32;8.98;;;3.10;;
41661;SDS011;27351;45.992;12.666;2023-09-19T07:46:02;9.00;;;3.00;;
41661;SDS011;27351;45.992;12.666;2023-09-19T07:48:28;9.07;;;3.28;;
41661;SDS011;27351;45.992;12.666;2023-09-19T07:50:54;8.00;;;2.72;;
41661;SDS011;27351;45.992;12.666;2023-09-19T07:53:20;9.73;;;3.15;;
41661;SDS011;27351;45.992;12.666;2023-09-19T07:55:45;9.27;;;3.13;;
41661;SDS011;27351;45.992;12.666;2023-09-19T07:58:13;10.38;;;3.45;;
41661;SDS011;27351;45.992;12.666;2023-09-19T08:00:41;10.32;;;3.75;;
41661;SDS011;27351;45.992;12.666;2023-09-19T08:03:07;10.38;;;3.80;;
41661;SDS011;27351;45.992;12.666;2023-09-19T08:05:34;10.43;;;2.97;;
41661;SDS011;27351;45.992;12.666;2023-09-19T08:08:00;8.93;;;3.30;;
41661;SDS011;27351;45.992;12.666;2023-09-19T08:10:28;7.18;;;2.83;;
41661;SDS011;27351;45.992;12.666;2023-09-19T08:13:00;9.07;;;2.60;;
41661;SDS011;27351;45.992;12.666;2023-09-19T08:15:27;10.52;;;2.83;;
41661;SDS011;27351;45.992;12.666;2023-09-19T08:17:53;6.90;;;2.53;;
41661;SDS011;27351;45.992;12.666;2023-09-19T08:20:18;6.22;;;1.90;;
41661;SDS011;27351;45.992;12.666;2023-09-19T08:22:51;7.82;;;2.13;;
41661;SDS011;27351;45.992;12.666;2023-09-19T08:25:20;9.38;;;2.63;;
41661;SDS011;27351;45.992;12.666;2023-09-19T08:27:47;7.97;;;2.40;;
41661;SDS011;27351;45.992;12.666;2023-09-19T08:30:14;6.75;;;2.42;;
41661;SDS011;27351;45.992;12.666;2023-09-19T08:32:40;11.35;;;2.85;;
41661;SDS011;27351;45.992;12.666;2023-09-19T08:35:08;8.07;;;2.55;;
41661;SDS011;27351;45.992;12.666;2023-09-19T08:37:34;9.05;;;2.58;;
41661;SDS011;27351;45.992;12.666;2023-09-19T08:40:00;10.30;;;2.70;;
41661;SDS011;27351;45.992;12.666;2023-09-19T08:42:25;10.67;;;3.50;;
41661;SDS011;27351;45.992;12.666;2023-09-19T08:44:52;6.87;;;2.57;;
41661;SDS011;27351;45.992;12.666;2023-09-19T08:47:28;8.43;;;2.88;;
41661;SDS011;27351;45.992;12.666;2023-09-19T08:52:25;10.07;;;2.87;;
41661;SDS011;27351;45.992;12.666;2023-09-19T08:54:52;6.25;;;2.70;;
41661;SDS011;27351;45.992;12.666;2023-09-19T08:57:21;7.00;;;2.70;;
41661;SDS011;27351;45.992;12.666;2023-09-19T08:59:50;15.40;;;3.53;;
41661;SDS011;27351;45.992;12.666;2023-09-19T09:02:16;10.30;;;3.40;;
41661;SDS011;27351;45.992;12.666;2023-09-19T09:04:45;11.77;;;2.63;;
41661;SDS011;27351;45.992;12.666;2023-09-19T09:07:11;8.18;;;2.63;;
41661;SDS011;27351;45.992;12.666;2023-09-19T09:09:38;7.93;;;2.30;;
41661;SDS011;27351;45.992;12.666;2023-09-19T09:12:13;7.97;;;2.33;;
41661;SDS011;27351;45.992;12.666;2023-09-19T09:14:40;8.88;;;2.50;;
41661;SDS011;27351;45.992;12.666;2023-09-19T09:17:06;6.60;;;2.15;;
41661;SDS011;27351;45.992;12.666;2023-09-19T09:19:32;8.13;;;2.28;;
41661;SDS011;27351;45.992;12.666;2023-09-19T09:22:08;11.33;;;2.37;;
41661;SDS011;27351;45.992;12.666;2023-09-19T09:24:34;8.60;;;2.72;;
41661;SDS011;27351;45.992;12.666;2023-09-19T09:27:03;9.68;;;3.28;;
41661;SDS011;27351;45.992;12.666;2023-09-19T09:29:49;10.55;;;3.60;;
41661;SDS011;27351;45.992;12.666;2023-09-19T09:32:22;9.00;;;2.30;;
41661;SDS011;27351;45.992;12.666;2023-09-19T09:34:49;10.43;;;2.70;;
41661;SDS011;27351;45.992;12.666;2023-09-19T09:37:15;8.15;;;2.55;;
41661;SDS011;27351;45.992;12.666;2023-09-19T09:39:54;8.40;;;2.40;;
41661;SDS011;27351;45.992;12.666;2023-09-19T09:42:34;9.35;;;2.50;;
41661;SDS011;27351;45.992;12.666;2023-09-19T09:47:41;10.18;;;3.08;;
41661;SDS011;27351;45.992;12.666;2023-09-19T09:50:07;11.40;;;2.72;;
41661;SDS011;27351;45.992;12.666;2023-09-19T09:52:45;11.43;;;2.90;;
41661;SDS011;27351;45.992;12.666;2023-09-19T09:55:11;8.90;;;2.87;;
41661;SDS011;27351;45.992;12.666;2023-09-19T09:57:38;11.52;;;2.70;;
41661;SDS011;27351;45.992;12.666;2023-09-19T10:00:07;9.77;;;2.67;;
41661;SDS011;27351;45.992;12.666;2023-09-19T10:02:38;13.73;;;3.10;;
41661;SDS011;27351;45.992;12.666;2023-09-19T10:05:16;8.38;;;2.80;;
41661;SDS011;27351;45.992;12.666;2023-09-19T10:07:45;7.85;;;2.50;;
41661;SDS011;27351;45.992;12.666;2023-09-19T10:13:08;9.00;;;2.67;;
41661;SDS011;27351;45.992;12.666;2023-09-19T10:15:38;8.63;;;2.63;;
41661;SDS011;27351;45.992;12.666;2023-09-19T10:18:06;10.93;;;2.80;;
41661;SDS011;27351;45.992;12.666;2023-09-19T10:20:33;7.63;;;2.53;;
41661;SDS011;27351;45.992;12.666;2023-09-19T10:23:05;9.20;;;2.97;;
41661;SDS011;27351;45.992;12.666;2023-09-19T10:25:36;12.52;;;3.38;;
41661;SDS011;27351;45.992;12.666;2023-09-19T10:28:02;9.17;;;2.70;;
41661;SDS011;27351;45.992;12.666;2023-09-19T10:30:29;11.55;;;3.50;;
41661;SDS011;27351;45.992;12.666;2023-09-19T10:33:00;10.13;;;2.92;;
41661;SDS011;27351;45.992;12.666;2023-09-19T10:35:26;8.38;;;2.50;;
41661;SDS011;27351;45.992;12.666;2023-09-19T10:37:51;12.25;;;3.40;;
41661;SDS011;27351;45.992;12.666;2023-09-19T10:40:19;13.15;;;2.88;;
41661;SDS011;27351;45.992;12.666;2023-09-19T10:42:46;7.32;;;2.50;;
41661;SDS011;27351;45.992;12.666;2023-09-19T10:45:13;10.30;;;2.67;;
41661;SDS011;27351;45.992;12.666;2023-09-19T10:47:41;11.48;;;2.90;;
41661;SDS011;27351;45.992;12.666;2023-09-19T10:50:06;11.90;;;3.17;;
41661;SDS011;27351;45.992;12.666;2023-09-19T10:52:39;10.90;;;3.13;;
41661;SDS011;27351;45.992;12.666;2023-09-19T10:55:05;10.15;;;3.30;;
41661;SDS011;27351;45.992;12.666;2023-09-19T10:57:32;11.60;;;3.10;;
41661;SDS011;27351;45.992;12.666;2023-09-19T11:03:16;9.45;;;2.60;;
41661;SDS011;27351;45.992;12.666;2023-09-19T11:05:32;9.48;;;2.30;;
41661;SDS011;27351;45.992;12.666;2023-09-19T11:07:59;10.80;;;2.80;;
41661;SDS011;27351;45.992;12.666;2023-09-19T11:13:27;10.30;;;2.78;;
41661;SDS011;27351;45.992;12.666;2023-09-19T11:26:42;10.60;;;3.10;;
41661;SDS011;27351;45.992;12.666;2023-09-19T11:29:30;9.60;;;3.00;;
41661;SDS011;27351;45.992;12.666;2023-09-19T11:31:56;10.48;;;2.97;;
41661;SDS011;27351;45.992;12.666;2023-09-19T11:37:03;8.52;;;2.42;;
41661;SDS011;27351;45.992;12.666;2023-09-19T11:39:29;8.23;;;2.70;;
41661;SDS011;27351;45.992;12.666;2023-09-19T11:41:55;9.68;;;3.25;;
41661;SDS011;27351;45.992;12.666;2023-09-19T11:46:53;10.50;;;3.37;;
41661;SDS011;27351;45.992;12.666;2023-09-19T11:49:19;11.85;;;3.42;;
41661;SDS011;27351;45.992;12.666;2023-09-19T11:51:52;9.82;;;2.92;;
41661;SDS011;27351;45.992;12.666;2023-09-19T11:54:17;13.85;;;3.08;;
41661;SDS011;27351;45.992;12.666;2023-09-19T11:56:48;8.65;;;3.58;;
41661;SDS011;27351;45.992;12.666;2023-09-19T12:01:55;9.80;;;3.00;;
41661;SDS011;27351;45.992;12.666;2023-09-19T12:07:01;7.97;;;2.53;;
41661;SDS011;27351;45.992;12.666;2023-09-19T12:09:26;14.00;;;2.90;;
41661;SDS011;27351;45.992;12.666;2023-09-19T12:11:52;11.10;;;3.20;;
41661;SDS011;27351;45.992;12.666;2023-09-19T12:14:21;10.52;;;3.00;;
41661;SDS011;27351;45.992;12.666;2023-09-19T12:16:51;9.63;;;2.60;;
41661;SDS011;27351;45.992;12.666;2023-09-19T12:19:20;14.48;;;3.33;;
41661;SDS011;27351;45.992;12.666;2023-09-19T12:22:00;9.00;;;3.15;;
41661;SDS011;27351;45.992;12.666;2023-09-19T12:24:29;9.68;;;2.65;;
41661;SDS011;27351;45.992;12.666;2023-09-19T12:27:05;9.98;;;2.55;;
41661;SDS011;27351;45.992;12.666;2023-09-19T12:29:31;10.27;;;2.85;;
41661;SDS011;27351;45.992;12.666;2023-09-19T12:31:57;8.20;;;3.03;;
41661;SDS011;27351;45.992;12.666;2023-09-19T12:34:24;8.88;;;3.13;;
41661;SDS011;27351;45.992;12.666;2023-09-19T12:39:36;12.32;;;3.08;;
41661;SDS011;27351;45.992;12.666;2023-09-19T12:42:02;8.88;;;3.03;;
41661;SDS011;27351;45.992;12.666;2023-09-19T12:44:29;8.95;;;1.95;;
41661;SDS011;27351;45.992;12.666;2023-09-19T12:46:55;7.07;;;2.60;;
41661;SDS011;27351;45.992;12.666;2023-09-19T12:49:24;10.88;;;2.53;;
41661;SDS011;27351;45.992;12.666;2023-09-19T12:51:50;8.70;;;2.20;;
41661;SDS011;27351;45.992;12.666;2023-09-19T12:54:20;8.43;;;2.60;;
41661;SDS011;27351;45.992;12.666;2023-09-19T12:56:47;6.07;;;1.60;;
41661;SDS011;27351;45.992;12.666;2023-09-19T12:59:16;6.47;;;2.00;;
41661;SDS011;27351;45.992;12.666;2023-09-19T13:01:41;4.90;;;1.67;;
41661;SDS011;27351;45.992;12.666;2023-09-19T13:06:51;8.05;;;1.77;;
41661;SDS011;27351;45.992;12.666;2023-09-19T13:09:18;7.50;;;1.50;;
41661;SDS011;27351;45.992;12.666;2023-09-19T13:11:45;4.37;;;1.50;;
41661;SDS011;27351;45.992;12.666;2023-09-19T13:16:59;12.70;;;1.63;;
41661;SDS011;27351;45.992;12.666;2023-09-19T13:19:48;9.07;;;2.03;;
41661;SDS011;27351;45.992;12.666;2023-09-19T13:22:39;4.70;;;1.17;;
41661;SDS011;27351;45.992;12.666;2023-09-19T13:25:06;5.78;;;1.40;;
41661;SDS011;27351;45.992;12.666;2023-09-19T13:27:32;3.17;;;1.00;;
41661;SDS011;27351;45.992;12.666;2023-09-19T13:29:58;6.07;;;1.30;;
41661;SDS011;27351;45.992;12.666;2023-09-19T13:32:24;5.30;;;1.60;;
41661;SDS011;27351;45.992;12.666;2023-09-19T13:34:49;5.63;;;1.20;;
41661;SDS011;27351;45.992;12.666;2023-09-19T13:37:16;5.13;;;1.30;;
41661;SDS011;27351;45.992;12.666;2023-09-19T13:39:43;9.73;;;1.83;;
41661;SDS011;27351;45.992;12.666;2023-09-19T13:42:15;5.50;;;1.50;;
41661;SDS011;27351;45.992;12.666;2023-09-19T13:44:42;5.45;;;1.30;;
41661;SDS011;27351;45.992;12.666;2023-09-19T13:47:07;6.07;;;1.63;;
41661;SDS011;27351;45.992;12.666;2023-09-19T13:49:38;6.43;;;1.40;;
41661;SDS011;27351;45.992;12.666;2023-09-19T13:52:03;6.47;;;1.67;;
41661;SDS011;27351;45.992;12.666;2023-09-19T13:54:31;4.27;;;1.60;;
41661;SDS011;27351;45.992;12.666;2023-09-19T13:56:56;4.13;;;1.40;;
41661;SDS011;27351;45.992;12.666;2023-09-19T13:59:22;5.93;;;1.10;;
41661;SDS011;27351;45.992;12.666;2023-09-19T14:01:49;5.20;;;1.55;;
41661;SDS011;27351;45.992;12.666;2023-09-19T14:04:16;5.45;;;1.90;;
41661;SDS011;27351;45.992;12.666;2023-09-19T14:06:42;7.32;;;1.92;;
41661;SDS011;27351;45.992;12.666;2023-09-19T14:09:08;5.93;;;1.75;;
41661;SDS011;27351;45.992;12.666;2023-09-19T14:11:34;3.53;;;1.42;;
41661;SDS011;27351;45.992;12.666;2023-09-19T14:14:00;7.10;;;1.67;;
41661;SDS011;27351;45.992;12.666;2023-09-19T14:16:26;5.38;;;1.48;;
41661;SDS011;27351;45.992;12.666;2023-09-19T14:18:55;6.43;;;1.90;;
41661;SDS011;27351;45.992;12.666;2023-09-19T14:21:21;6.90;;;1.50;;
41661;SDS011;27351;45.992;12.666;2023-09-19T14:23:46;4.50;;;1.30;;
41661;SDS011;27351;45.992;12.666;2023-09-19T14:26:12;5.47;;;1.23;;
41661;SDS011;27351;45.992;12.666;2023-09-19T14:28:37;4.50;;;1.30;;
41661;SDS011;27351;45.992;12.666;2023-09-19T14:31:07;7.53;;;1.65;;
41661;SDS011;27351;45.992;12.666;2023-09-19T14:33:33;4.72;;;1.70;;
41661;SDS011;27351;45.992;12.666;2023-09-19T14:36:02;4.10;;;1.10;;
41661;SDS011;27351;45.992;12.666;2023-09-19T14:38:28;4.05;;;1.10;;
41661;SDS011;27351;45.992;12.666;2023-09-19T14:41:03;5.38;;;1.95;;
41661;SDS011;27351;45.992;12.666;2023-09-19T14:43:29;5.15;;;1.52;;
41661;SDS011;27351;45.992;12.666;2023-09-19T14:45:56;4.80;;;1.52;;
41661;SDS011;27351;45.992;12.666;2023-09-19T14:48:22;4.35;;;1.33;;
41661;SDS011;27351;45.992;12.666;2023-09-19T14:50:52;11.90;;;3.05;;
41661;SDS011;27351;45.992;12.666;2023-09-19T14:53:17;26.17;;;11.85;;
41661;SDS011;27351;45.992;12.666;2023-09-19T14:55:43;15.00;;;7.03;;
41661;SDS011;27351;45.992;12.666;2023-09-19T14:58:10;7.22;;;2.15;;
41661;SDS011;27351;45.992;12.666;2023-09-19T15:00:37;5.68;;;1.40;;
41661;SDS011;27351;45.992;12.666;2023-09-19T15:03:04;3.77;;;1.20;;
41661;SDS011;27351;45.992;12.666;2023-09-19T15:05:29;3.87;;;1.20;;
41661;SDS011;27351;45.992;12.666;2023-09-19T15:07:55;4.50;;;1.42;;
41661;SDS011;27351;45.992;12.666;2023-09-19T15:10:22;5.10;;;1.73;;
41661;SDS011;27351;45.992;12.666;2023-09-19T15:12:48;6.70;;;1.40;;
41661;SDS011;27351;45.992;12.666;2023-09-19T15:15:14;4.28;;;1.08;;
41661;SDS011;27351;45.992;12.666;2023-09-19T15:17:40;4.03;;;1.17;;
41661;SDS011;27351;45.992;12.666;2023-09-19T15:20:06;7.60;;;1.58;;
41661;SDS011;27351;45.992;12.666;2023-09-19T15:22:33;4.77;;;1.00;;
41661;SDS011;27351;45.992;12.666;2023-09-19T15:25:00;4.68;;;1.40;;
41661;SDS011;27351;45.992;12.666;2023-09-19T15:27:27;4.75;;;1.35;;
41661;SDS011;27351;45.992;12.666;2023-09-19T15:29:54;3.17;;;1.20;;